Time;durP1;ratioP1;P1;durP2;ratioP2;P2;SDS_P1;SDS_P2;PMS_P1;PMS_P2;Temp;Humidity;BMP_temperature;BMP_pressure;BME280_temperature;BME280_humidity;BME280_pressure;Samples;Min_cycle;Max_cycle;Signal;HPM_P1;HPM_P2
2023/10/05 00:01:44;;;;;;;0.30;0.30;;;;;;;17.38;66.43;102336.06;5099086;28;20039;-81
2023/10/05 00:04:15;;;;;;;0.10;0.10;;;;;;;17.43;66.24;102341.31;5104433;28;20024;-80
2023/10/05 00:06:42;;;;;;;0.10;0.10;;;;;;;17.43;66.20;102336.88;5099676;28;20488;-80
2023/10/05 00:09:13;;;;;;;0.10;0.10;;;;;;;17.45;66.18;102334.13;5098326;28;20032;-80
2023/10/05 00:11:39;;;;;;;0.22;0.22;;;;;;;17.40;66.03;102342.28;5102219;28;20035;-81
2023/10/05 00:14:07;;;;;;;0.10;0.10;;;;;;;17.40;66.02;102346.78;5101041;28;20024;-80
2023/10/05 00:16:37;;;;;;;0.13;0.13;;;;;;;17.40;65.96;102354.81;5086971;28;20497;-80
2023/10/05 00:19:15;;;;;;;0.10;0.10;;;;;;;17.41;65.79;102352.09;5096160;28;20095;-80
2023/10/05 00:21:51;;;;;;;0.10;0.10;;;;;;;17.41;65.51;102345.84;5095363;28;20056;-81
2023/10/05 00:24:25;;;;;;;0.10;0.10;;;;;;;17.42;65.40;102347.59;5091078;28;20467;-79
2023/10/05 00:26:51;;;;;;;0.10;0.10;;;;;;;17.42;65.24;102340.47;5093352;28;20032;-80
2023/10/05 00:32:08;;;;;;;0.00;0.00;;;;;;;17.44;65.25;102343.09;5095096;28;20032;-79
2023/10/05 00:34:34;;;;;;;0.10;0.10;;;;;;;17.41;65.09;102346.72;5098096;28;20028;-80
2023/10/05 00:37:00;;;;;;;0.10;0.10;;;;;;;17.43;64.86;102339.53;5085040;28;20084;-80
2023/10/05 00:39:29;;;;;;;0.03;0.03;;;;;;;17.42;65.27;102343.13;5092973;28;20097;-80
2023/10/05 00:42:06;;;;;;;6.60;1.30;;;;;;;17.40;65.09;102342.28;5105825;28;20016;-79
2023/10/05 00:44:34;;;;;;;0.10;0.10;;;;;;;17.39;65.16;102343.19;5095426;28;20390;-80
2023/10/05 00:47:04;;;;;;;0.10;0.10;;;;;;;17.44;64.96;102335.91;5098914;28;20024;-79
2023/10/05 00:49:41;;;;;;;0.00;0.00;;;;;;;17.44;64.78;102343.09;5103897;28;20028;-79
2023/10/05 00:54:50;;;;;;;0.10;0.10;;;;;;;17.45;64.84;102343.03;5104560;27;20399;-81
2023/10/05 00:57:21;;;;;;;0.10;0.10;;;;;;;17.48;64.70;102351.94;5101849;28;20517;-81
2023/10/05 00:59:56;;;;;;;0.10;0.10;;;;;;;17.48;64.85;102347.44;5095002;28;20119;-80
2023/10/05 01:02:23;;;;;;;0.10;0.10;;;;;;;17.44;64.76;102352.00;5102674;28;20032;-81
2023/10/05 01:04:56;;;;;;;0.05;0.05;;;;;;;17.41;64.57;102353.91;5105161;28;20085;-80
2023/10/05 01:12:44;;;;;;;0.10;0.10;;;;;;;17.49;64.30;102345.66;5119430;27;20388;-80
2023/10/05 01:15:16;;;;;;;0.20;0.20;;;;;;;17.43;64.20;102344.91;5126051;27;20024;-81
2023/10/05 01:17:43;;;;;;;0.10;0.10;;;;;;;17.41;64.28;102346.72;5100465;28;20066;-81
2023/10/05 01:20:12;;;;;;;0.10;0.10;;;;;;;17.35;64.18;102336.16;5108573;28;20103;-81
2023/10/05 01:22:39;;;;;;;0.20;0.20;;;;;;;17.37;64.10;102334.34;5123844;28;20028;-81
2023/10/05 01:25:07;;;;;;;0.10;0.10;;;;;;;17.38;64.08;102320.00;5124128;27;20498;-81
2023/10/05 01:27:35;;;;;;;0.10;0.10;;;;;;;17.39;64.01;102327.13;5117088;27;20126;-81
2023/10/05 01:30:03;;;;;;;0.40;0.30;;;;;;;17.44;63.85;102324.34;5120048;28;20027;-80
2023/10/05 01:32:29;;;;;;;0.10;0.10;;;;;;;17.36;63.73;102329.88;5117393;28;20115;-81
2023/10/05 01:34:55;;;;;;;0.10;0.10;;;;;;;17.40;63.67;102328.03;5117378;28;20489;-81
2023/10/05 01:37:25;;;;;;;0.10;0.10;;;;;;;17.41;63.79;102330.66;5135096;28;20028;-79
2023/10/05 01:39:52;;;;;;;0.10;0.10;;;;;;;17.38;63.48;102333.38;5140288;28;20078;-81
2023/10/05 01:42:19;;;;;;;0.10;0.10;;;;;;;17.49;63.47;102340.31;5124986;28;20043;-81
2023/10/05 01:44:49;;;;;;;0.20;0.20;;;;;;;17.44;63.62;102338.59;5122810;27;20456;-81
2023/10/05 01:47:16;;;;;;;0.10;0.10;;;;;;;17.49;63.49;102337.63;5118526;28;20020;-80
2023/10/05 01:49:44;;;;;;;0.13;0.13;;;;;;;17.48;63.45;102339.41;5120391;28;20042;-81
2023/10/05 01:52:10;;;;;;;0.10;0.10;;;;;;;17.45;63.35;102336.81;5115919;28;20039;-82
2023/10/05 01:54:36;;;;;;;0.10;0.10;;;;;;;17.45;63.22;102337.69;5127717;28;20032;-82
2023/10/05 01:57:07;;;;;;;0.75;0.75;;;;;;;17.44;63.29;102341.28;5116176;28;20028;-81
2023/10/05 01:59:34;;;;;;;0.08;0.08;;;;;;;17.40;63.43;102336.06;5110407;28;20039;-81
2023/10/05 02:02:01;;;;;;;0.10;0.10;;;;;;;17.42;63.61;102343.13;5123682;28;20019;-82
2023/10/05 02:04:29;;;;;;;0.10;0.10;;;;;;;17.43;63.47;102334.19;5112905;28;20023;-81
2023/10/05 02:06:55;;;;;;;8.57;1.35;;;;;;;17.39;63.70;102332.47;5125207;28;20019;-81
2023/10/05 02:09:22;;;;;;;0.15;0.15;;;;;;;17.40;63.47;102333.38;5119980;28;20027;-81
2023/10/05 02:11:49;;;;;;;0.10;0.10;;;;;;;17.39;63.46;102332.47;5115140;27;20035;-81
2023/10/05 02:14:16;;;;;;;0.20;0.20;;;;;;;17.38;63.39;102330.72;5119826;28;20031;-80
2023/10/05 02:16:48;;;;;;;0.20;0.20;;;;;;;17.36;63.22;102332.56;5120562;28;20048;-81
2023/10/05 02:19:14;;;;;;;0.32;0.32;;;;;;;17.41;63.05;102325.28;5122128;28;20059;-81
2023/10/05 02:21:42;;;;;;;0.10;0.10;;;;;;;17.44;63.06;102335.91;5118522;28;20024;-80
2023/10/05 02:24:25;;;;;;;0.08;0.08;;;;;;;17.45;62.44;102331.47;5113125;28;20030;-79
2023/10/05 02:29:40;;;;;;;0.10;0.10;;;;;;;17.48;62.37;102319.78;5111688;27;20450;-81
2023/10/05 02:32:10;;;;;;;0.10;0.10;;;;;;;17.46;62.95;102312.66;5104252;28;20395;-81
2023/10/05 02:37:24;;;;;;;0.10;0.10;;;;;;;17.36;64.21;102308.47;5096868;28;20461;-81
2023/10/05 02:39:50;;;;;;;0.00;0.00;;;;;;;17.31;64.16;102307.69;5103160;28;20020;-81
2023/10/05 02:42:21;;;;;;;4.78;1.83;;;;;;;17.24;64.52;102308.75;5105258;28;20051;-81
2023/10/05 02:44:49;;;;;;;0.10;0.10;;;;;;;17.23;64.74;102305.19;5099950;28;20033;-81
2023/10/05 02:47:22;;;;;;;0.00;0.00;;;;;;;17.17;65.48;102308.03;5098479;28;20111;-81
2023/10/05 02:49:49;;;;;;;0.25;0.25;;;;;;;17.19;65.00;102308.00;5102617;28;20573;-81
2023/10/05 02:52:16;;;;;;;0.10;0.10;;;;;;;17.16;65.09;102310.72;5101487;28;20028;-81
2023/10/05 02:54:43;;;;;;;0.10;0.10;;;;;;;17.13;65.06;102315.25;5103187;28;20111;-81
2023/10/05 02:57:11;;;;;;;0.10;0.10;;;;;;;17.07;65.41;102315.41;5102881;28;20499;-81
2023/10/05 02:59:37;;;;;;;0.03;0.03;;;;;;;17.03;65.33;102313.69;5092965;28;20067;-81
2023/10/05 03:02:08;;;;;;;0.10;0.10;;;;;;;16.91;65.90;102313.94;5096077;28;20024;-81
2023/10/05 03:04:44;;;;;;;0.10;0.10;;;;;;;16.79;66.39;102310.66;5106762;28;20615;-81
2023/10/05 03:07:15;;;;;;;0.10;0.10;;;;;;;16.85;66.03;102308.75;5093613;28;20035;-81
2023/10/05 03:09:42;;;;;;;0.20;0.20;;;;;;;16.78;65.99;102306.19;5100791;28;20499;-81
2023/10/05 03:12:10;;;;;;;0.10;0.10;;;;;;;16.69;66.46;102303.75;5101737;28;20100;-81
2023/10/05 03:14:36;;;;;;;1.88;0.65;;;;;;;16.67;66.80;102313.59;5103657;28;20115;-81
2023/10/05 03:17:07;;;;;;;0.30;0.30;;;;;;;16.66;66.82;102303.84;5097608;28;20046;-80
2023/10/05 03:19:36;;;;;;;0.10;0.10;;;;;;;16.68;66.74;102307.34;5097980;28;20028;-81
2023/10/05 03:22:07;;;;;;;0.10;0.10;;;;;;;16.68;66.84;102318.03;5107790;28;20016;-81
2023/10/05 03:24:35;;;;;;;0.10;0.10;;;;;;;16.61;66.91;102317.31;5097100;28;20085;-81
2023/10/05 03:27:03;;;;;;;0.10;0.10;;;;;;;16.61;67.16;102316.41;5101708;28;20020;-81
2023/10/05 03:29:30;;;;;;;0.10;0.10;;;;;;;16.52;67.20;102317.47;5105311;28;20036;-80
2023/10/05 03:32:13;;;;;;;0.22;0.22;;;;;;;16.44;67.41;102322.13;5096567;28;20032;-81
2023/10/05 03:34:42;;;;;;;0.00;0.00;;;;;;;16.54;66.98;102317.47;5099737;28;20099;-81
2023/10/05 03:37:13;;;;;;;0.30;0.30;;;;;;;16.52;67.39;102316.63;5096372;28;20032;-80
2023/10/05 03:42:33;;;;;;;0.10;0.10;;;;;;;16.44;66.75;102314.97;5096220;27;20392;-80
2023/10/05 03:45:16;;;;;;;0.10;0.10;;;;;;;16.42;67.40;102314.13;5094719;28;20028;-80
2023/10/05 03:47:43;;;;;;;0.10;0.10;;;;;;;16.34;67.82;102308.06;5088664;28;20055;-80
2023/10/05 03:50:16;;;;;;;0.77;0.77;;;;;;;16.43;67.42;102307.84;5091083;28;20073;-81
2023/10/05 03:52:44;;;;;;;0.40;0.40;;;;;;;16.39;67.45;102307.97;5096870;28;20020;-80
2023/10/05 03:55:11;;;;;;;0.10;0.10;;;;;;;16.36;67.64;102308.91;5093448;28;20024;-81
2023/10/05 03:57:39;;;;;;;0.10;0.10;;;;;;;16.34;67.76;102308.94;5095649;28;20032;-80
2023/10/05 04:00:37;;;;;;;0.10;0.10;;;;;;;16.36;68.56;102316.06;5095586;28;20076;-80
2023/10/05 04:02:52;;;;;;;0.08;0.08;;;;;;;16.39;68.50;102316.00;5091246;28;20044;-80
2023/10/05 04:05:20;;;;;;;0.00;0.00;;;;;;;16.43;68.24;102315.88;5099190;28;20108;-81
2023/10/05 04:07:47;;;;;;;1.00;1.00;;;;;;;16.43;68.24;102313.22;5092017;28;20035;-80
2023/10/05 04:10:15;;;;;;;0.20;0.20;;;;;;;16.33;68.62;102314.31;5097380;28;20495;-80
2023/10/05 04:12:42;;;;;;;0.10;0.10;;;;;;;16.35;68.17;102315.19;5098431;28;20138;-80
2023/10/05 04:15:11;;;;;;;0.10;0.10;;;;;;;16.31;68.51;102314.38;5099481;28;20027;-81
2023/10/05 04:17:38;;;;;;;0.10;0.10;;;;;;;16.31;68.85;102313.47;5091099;28;20452;-80
2023/10/05 04:20:27;;;;;;;0.40;0.40;;;;;;;16.27;69.02;102311.78;5092172;28;20024;-80
2023/10/05 04:22:51;;;;;;;0.10;0.10;;;;;;;16.30;68.71;102311.72;5092258;28;20074;-80
2023/10/05 04:25:17;;;;;;;4.50;0.50;;;;;;;16.30;68.39;102311.72;5088958;28;20032;-80
2023/10/05 04:27:47;;;;;;;0.10;0.10;;;;;;;16.29;68.76;102315.31;5092985;28;20067;-80
2023/10/05 04:30:22;;;;;;;0.10;0.10;;;;;;;16.28;68.97;102321.56;5089928;28;20033;-79
2023/10/05 04:32:48;;;;;;;0.10;0.10;;;;;;;16.29;68.17;102318.84;5090029;28;20512;-79
2023/10/05 04:35:23;;;;;;;0.10;0.10;;;;;;;16.16;69.06;102315.56;5094146;28;20066;-82
2023/10/05 04:37:50;;;;;;;0.10;0.10;;;;;;;16.21;68.81;102303.88;5089576;28;20055;-79
2023/10/05 04:40:17;;;;;;;0.10;0.10;;;;;;;16.16;68.92;102310.22;5081940;28;20393;-79
2023/10/05 04:42:44;;;;;;;0.10;0.10;;;;;;;16.18;68.66;102308.38;5085129;28;20024;-79
2023/10/05 04:45:12;;;;;;;0.10;0.10;;;;;;;16.22;68.55;102305.66;5089637;28;20028;-79
2023/10/05 04:47:38;;;;;;;0.10;0.10;;;;;;;16.21;68.58;102309.22;5083397;28;20461;-79
2023/10/05 04:50:06;;;;;;;0.10;0.10;;;;;;;16.18;68.92;102302.16;5084562;28;20054;-79
2023/10/05 04:52:34;;;;;;;0.10;0.10;;;;;;;16.22;68.71;102308.31;5083708;28;20499;-78
2023/10/05 04:55:17;;;;;;;0.10;0.10;;;;;;;16.18;68.76;102313.72;5080113;28;20041;-79
2023/10/05 04:57:55;;;;;;;0.10;0.10;;;;;;;16.14;68.85;102311.16;5070800;28;20210;-79
2023/10/05 05:06:10;;;;;;;0.10;0.10;;;;;;;16.11;69.03;102322.78;5071040;28;20079;-78
2023/10/05 05:08:40;;;;;;;0.17;0.17;;;;;;;16.17;68.36;102321.78;5073369;28;20032;-79
2023/10/05 05:11:18;;;;;;;0.10;0.10;;;;;;;16.15;68.22;102328.97;5083360;28;20037;-78
2023/10/05 05:13:46;;;;;;;0.10;0.10;;;;;;;16.13;68.37;102331.66;5072087;28;20017;-78
2023/10/05 05:16:14;;;;;;;0.10;0.10;;;;;;;16.10;68.81;102325.47;5081573;28;20067;-79
2023/10/05 05:18:41;;;;;;;0.20;0.20;;;;;;;16.07;68.53;102337.09;5072636;28;20105;-79
2023/10/05 05:21:08;;;;;;;0.03;0.03;;;;;;;16.08;68.50;102343.34;5080107;28;20028;-78
2023/10/05 05:23:35;;;;;;;0.10;0.10;;;;;;;15.98;69.24;102337.31;5081546;28;20040;-77
2023/10/05 05:26:03;;;;;;;0.20;0.20;;;;;;;16.02;68.66;102333.66;5088516;28;20028;-79
2023/10/05 05:28:30;;;;;;;0.10;0.10;;;;;;;16.00;68.86;102336.34;5081770;28;20024;-78
2023/10/05 05:31:04;;;;;;;0.10;0.10;;;;;;;15.92;69.17;102337.41;5076364;28;20024;-79
2023/10/05 05:33:31;;;;;;;0.25;0.25;;;;;;;15.95;68.85;102346.25;5075960;28;20055;-78
2023/10/05 05:35:57;;;;;;;0.10;0.10;;;;;;;15.94;69.11;102351.66;5075228;28;20033;-78
2023/10/05 05:38:23;;;;;;;0.10;0.10;;;;;;;15.88;69.24;102359.78;5075088;28;20033;-79
2023/10/05 05:40:49;;;;;;;0.10;0.10;;;;;;;15.88;69.26;102349.09;5073385;28;20378;-78
2023/10/05 05:43:15;;;;;;;0.10;0.10;;;;;;;15.95;68.77;102348.03;5081632;28;20040;-78
2023/10/05 05:45:44;;;;;;;0.10;0.10;;;;;;;15.96;68.90;102344.44;5073180;28;20033;-79
2023/10/05 05:48:13;;;;;;;0.10;0.10;;;;;;;15.91;68.81;102343.66;5074398;28;20118;-78
2023/10/05 05:50:42;;;;;;;0.45;0.35;;;;;;;15.94;68.72;102347.16;5078522;28;20028;-78
2023/10/05 05:53:11;;;;;;;0.10;0.10;;;;;;;15.89;69.04;102350.81;5081959;28;20031;-80
2023/10/05 05:55:44;;;;;;;0.10;0.10;;;;;;;15.90;68.42;102350.81;5072053;28;20084;-80
2023/10/05 05:58:18;;;;;;;0.10;0.10;;;;;;;15.90;68.64;102349.91;5067489;28;20401;-80
2023/10/05 06:00:47;;;;;;;0.15;0.15;;;;;;;15.92;68.63;102359.66;5070692;28;20520;-79
2023/10/05 06:03:14;;;;;;;0.10;0.10;;;;;;;15.92;68.97;102350.78;5076484;28;20123;-79
2023/10/05 06:05:40;;;;;;;0.10;0.10;;;;;;;15.93;68.66;102344.53;5071282;28;20481;-79
2023/10/05 06:08:09;;;;;;;0.10;0.10;;;;;;;15.93;68.77;102349.88;5066745;28;20084;-79
2023/10/05 06:10:35;;;;;;;0.10;0.10;;;;;;;15.90;68.70;102356.16;5067259;28;20440;-78
2023/10/05 06:13:01;;;;;;;0.10;0.10;;;;;;;15.92;68.60;102353.44;5078155;28;20024;-79
2023/10/05 06:15:29;;;;;;;0.10;0.10;;;;;;;15.96;68.50;102349.81;5078900;28;20096;-79
2023/10/05 06:17:55;;;;;;;0.10;0.10;;;;;;;15.95;69.10;102358.72;5073764;28;20039;-79
2023/10/05 06:20:21;;;;;;;0.17;0.17;;;;;;;15.93;69.21;102363.25;5072584;28;20047;-79
2023/10/05 06:22:49;;;;;;;0.10;0.10;;;;;;;15.98;68.49;102358.69;5068354;28;20024;-80
2023/10/05 06:25:15;;;;;;;0.00;0.00;;;;;;;16.00;68.44;102362.22;5069521;28;20084;-80
2023/10/05 06:27:43;;;;;;;0.10;0.10;;;;;;;16.00;69.11;102367.56;5073114;28;20514;-79
2023/10/05 06:30:11;;;;;;;0.10;0.10;;;;;;;16.00;68.87;102368.44;5075498;28;20024;-80
2023/10/05 06:32:38;;;;;;;0.10;0.10;;;;;;;16.06;69.07;102371.91;5067796;28;20033;-80
2023/10/05 06:35:08;;;;;;;0.00;0.00;;;;;;;16.07;69.19;102373.69;5070360;28;20107;-79
2023/10/05 06:37:38;;;;;;;0.10;0.10;;;;;;;16.14;68.79;102373.53;5065862;28;20375;-79
2023/10/05 06:40:09;;;;;;;0.10;0.10;;;;;;;16.16;68.82;102379.72;5079377;28;20101;-80
2023/10/05 06:42:37;;;;;;;0.10;0.10;;;;;;;16.15;68.80;102383.31;5064825;28;20036;-79
2023/10/05 06:45:07;;;;;;;0.10;0.10;;;;;;;16.18;69.07;102387.72;5069866;28;20551;-78
2023/10/05 06:47:36;;;;;;;0.20;0.20;;;;;;;16.24;68.89;102392.09;5076539;28;20024;-81
2023/10/05 06:50:08;;;;;;;0.10;0.10;;;;;;;16.25;68.80;102384.03;5071179;28;20029;-81
2023/10/05 06:52:36;;;;;;;0.47;0.47;;;;;;;16.32;68.24;102382.09;5071436;28;20025;-80
2023/10/05 06:55:07;;;;;;;0.10;0.10;;;;;;;16.29;68.68;102387.53;5066685;28;20039;-80
2023/10/05 06:57:35;;;;;;;0.10;0.10;;;;;;;16.37;68.58;102398.94;5069070;28;20108;-79
2023/10/05 07:00:11;;;;;;;0.10;0.10;;;;;;;16.40;68.92;102414.94;5066674;28;20031;-79
2023/10/05 07:02:37;;;;;;;0.10;0.10;;;;;;;16.47;68.36;102419.28;5076419;28;20032;-80
2023/10/05 07:05:05;;;;;;;0.00;0.00;;;;;;;16.54;68.42;102429.84;5074839;28;20045;-80
2023/10/05 07:07:32;;;;;;;0.10;0.10;;;;;;;16.55;68.39;102423.56;5073698;28;20035;-81
2023/10/05 07:10:03;;;;;;;0.10;0.10;;;;;;;16.61;68.60;102418.09;5073284;28;20027;-80
2023/10/05 07:12:31;;;;;;;0.00;0.00;;;;;;;16.66;68.65;102421.59;5075651;28;20115;-81
2023/10/05 07:14:57;;;;;;;0.10;0.10;;;;;;;16.69;68.60;102426.84;5074325;28;20109;-80
2023/10/05 07:17:26;;;;;;;0.10;0.10;;;;;;;16.72;68.30;102442.84;5072930;28;20035;-81
2023/10/05 07:19:53;;;;;;;0.10;0.10;;;;;;;16.76;68.27;102444.56;5073627;28;20074;-81
2023/10/05 07:22:20;;;;;;;6.00;1.33;;;;;;;16.78;68.07;102445.38;5067905;28;20111;-79
2023/10/05 07:24:46;;;;;;;0.55;0.40;;;;;;;16.86;68.33;102453.28;5073226;28;20502;-79
2023/10/05 07:27:13;;;;;;;0.10;0.10;;;;;;;16.91;68.17;102437.09;5077894;28;20040;-77
2023/10/05 07:29:44;;;;;;;0.03;0.03;;;;;;;17.00;68.07;102447.66;5071785;28;20029;-77
2023/10/05 07:32:12;;;;;;;0.10;0.10;;;;;;;17.01;67.97;102444.09;5067341;28;20020;-76
2023/10/05 07:34:40;;;;;;;0.30;0.30;;;;;;;17.00;68.00;102441.41;5070612;28;20033;-79
2023/10/05 07:37:10;;;;;;;0.10;0.10;;;;;;;17.08;68.05;102444.81;5063104;28;20036;-76
2023/10/05 07:39:37;;;;;;;0.10;0.10;;;;;;;17.11;68.14;102442.09;5074438;28;20040;-79
2023/10/05 07:42:03;;;;;;;0.00;0.00;;;;;;;17.13;67.97;102448.28;5078755;28;20024;-76
2023/10/05 07:44:29;;;;;;;0.10;0.10;;;;;;;17.23;67.86;102448.94;5069665;28;20468;-78
2023/10/05 07:46:55;;;;;;;0.10;0.10;;;;;;;17.33;67.55;102455.84;5070361;28;20482;-79
2023/10/05 07:49:21;;;;;;;0.10;0.10;;;;;;;17.39;67.58;102450.38;5069267;28;20187;-78
2023/10/05 07:51:48;;;;;;;0.10;0.10;;;;;;;17.50;67.54;102446.56;5064266;28;20119;-79
2023/10/05 07:54:14;;;;;;;0.50;0.50;;;;;;;17.52;67.21;102447.41;5067864;28;20020;-79
2023/10/05 07:56:41;;;;;;;0.10;0.10;;;;;;;17.62;67.17;102457.88;5070286;28;20060;-79
2023/10/05 07:59:07;;;;;;;0.10;0.10;;;;;;;17.68;67.13;102461.31;5070840;28;20112;-79
2023/10/05 08:01:33;;;;;;;0.10;0.10;;;;;;;17.76;66.98;102470.06;5073330;28;20509;-75
2023/10/05 08:03:59;;;;;;;0.00;0.00;;;;;;;17.83;66.86;102470.78;5072252;28;20040;-78
2023/10/05 08:06:25;;;;;;;0.10;0.10;;;;;;;17.91;66.55;102464.31;5065048;28;20805;-79
2023/10/05 08:08:53;;;;;;;0.10;0.10;;;;;;;17.93;66.32;102462.50;5069111;28;20025;-79
2023/10/05 08:11:20;;;;;;;0.10;0.10;;;;;;;18.05;66.12;102472.03;5070261;28;20020;-78
2023/10/05 08:13:47;;;;;;;0.10;0.10;;;;;;;18.06;66.13;102470.25;5080949;28;20044;-79
2023/10/05 08:16:13;;;;;;;0.10;0.10;;;;;;;18.17;65.67;102467.28;5077281;28;20397;-77
2023/10/05 08:18:41;;;;;;;4.47;1.20;;;;;;;18.32;65.45;102471.34;5072560;28;20036;-77
2023/10/05 08:21:07;;;;;;;0.40;0.40;;;;;;;18.31;65.43;102475.84;5068593;28;20055;-78
2023/10/05 08:23:33;;;;;;;0.08;0.08;;;;;;;18.48;65.04;102474.50;5070534;28;20029;-80
2023/10/05 08:28:49;;;;;;;0.00;0.00;;;;;;;18.61;64.44;102478.63;5074412;28;20040;-80
2023/10/05 08:31:18;;;;;;;0.10;0.10;;;;;;;18.68;64.58;102492.75;5083226;28;20077;-79
2023/10/05 08:33:44;;;;;;;0.10;0.10;;;;;;;18.66;63.69;102489.25;5076957;28;20557;-77
2023/10/05 08:36:12;;;;;;;0.20;0.20;;;;;;;18.73;63.22;102490.84;5075136;28;20044;-80
2023/10/05 08:38:39;;;;;;;0.47;0.47;;;;;;;18.76;63.38;102494.28;5072385;28;20074;-79
2023/10/05 08:41:11;;;;;;;0.15;0.15;;;;;;;18.86;63.65;102486.88;5077487;28;20032;-77
2023/10/05 08:43:40;;;;;;;0.10;0.10;;;;;;;18.84;63.06;102498.56;5076213;28;20119;-79
2023/10/05 08:46:10;;;;;;;0.10;0.10;;;;;;;18.96;63.03;102500.06;5075734;28;20111;-79
2023/10/05 08:48:37;;;;;;;0.10;0.10;;;;;;;18.97;63.02;102502.72;5072224;28;20032;-81
2023/10/05 08:51:10;;;;;;;0.80;0.80;;;;;;;18.96;62.99;102509.00;5067964;28;20029;-81
2023/10/05 08:53:42;;;;;;;0.00;0.00;;;;;;;19.03;63.39;102499.84;5068811;28;20103;-80
2023/10/05 08:56:13;;;;;;;0.10;0.10;;;;;;;19.06;63.47;102510.50;5075417;28;20039;-80
2023/10/05 08:58:42;;;;;;;0.10;0.10;;;;;;;19.07;62.85;102514.94;5072841;28;20036;-79
2023/10/05 09:01:31;;;;;;;0.10;0.10;;;;;;;19.18;62.88;102524.50;5076516;28;20020;-78
2023/10/05 09:04:01;;;;;;;0.10;0.10;;;;;;;19.04;62.71;102525.78;5066465;28;20032;-80
2023/10/05 09:06:28;;;;;;;0.00;0.00;;;;;;;19.05;62.03;102529.34;5071547;28;20103;-80
2023/10/05 09:09:07;;;;;;;0.17;0.17;;;;;;;18.93;61.56;102535.97;5075601;28;20108;-80
2023/10/05 09:11:33;;;;;;;0.10;0.10;;;;;;;19.05;61.30;102540.09;5077782;28;20021;-80
2023/10/05 09:14:23;;;;;;;0.20;0.20;;;;;;;19.07;61.55;102538.25;5076426;28;20624;-80
2023/10/05 09:16:55;;;;;;;0.10;0.10;;;;;;;19.12;61.48;102535.44;5075719;28;20036;-80
2023/10/05 09:22:10;;;;;;;0.10;0.10;;;;;;;19.19;61.52;102531.63;5062752;28;20367;-81
2023/10/05 09:24:37;;;;;;;0.10;0.10;;;;;;;19.28;61.42;102535.84;5057177;28;20032;-83
2023/10/05 09:27:12;;;;;;;0.10;0.10;;;;;;;19.33;61.16;102545.53;5060500;28;20373;-82
2023/10/05 09:29:39;;;;;;;0.20;0.20;;;;;;;19.40;61.35;102544.44;5054957;28;20053;-83
2023/10/05 09:32:11;;;;;;;0.10;0.10;;;;;;;19.47;61.37;102539.75;5059060;28;20031;-82
2023/10/05 09:34:44;;;;;;;0.10;0.10;;;;;;;19.52;61.14;102543.16;5056392;28;20108;-83
2023/10/05 09:37:12;;;;;;;0.57;0.50;;;;;;;19.60;60.89;102542.97;5053587;28;20025;-82
2023/10/05 09:39:43;;;;;;;0.10;0.10;;;;;;;19.60;60.75;102531.31;5050152;28;20029;-84
2023/10/05 09:42:25;;;;;;;0.10;0.10;;;;;;;19.64;59.58;102544.63;5048357;28;20033;-83
2023/10/05 09:44:53;;;;;;;0.55;0.55;;;;;;;19.63;60.04;102542.84;5045071;28;20108;-83
2023/10/05 09:47:24;;;;;;;0.13;0.13;;;;;;;19.48;58.87;102548.72;5051549;28;20063;-83
2023/10/05 09:49:53;;;;;;;0.10;0.10;;;;;;;19.51;59.07;102548.59;5052098;28;20021;-83
2023/10/05 09:52:21;;;;;;;0.10;0.10;;;;;;;19.61;59.19;102547.38;5051828;28;20112;-84
2023/10/05 09:54:49;;;;;;;0.35;0.30;;;;;;;19.60;59.10;102547.44;5044976;28;20029;-82
2023/10/05 09:57:17;;;;;;;0.00;0.00;;;;;;;19.67;58.67;102549.00;5046332;28;20029;-81
2023/10/05 09:59:48;;;;;;;0.52;0.52;;;;;;;19.75;59.11;102552.34;5052901;28;20064;-82
2023/10/05 10:02:16;;;;;;;0.40;0.30;;;;;;;19.78;58.21;102546.88;5050003;28;20524;-81
2023/10/05 10:04:46;;;;;;;0.00;0.00;;;;;;;19.90;58.32;102545.63;5051985;28;20112;-82
2023/10/05 10:07:16;;;;;;;0.10;0.10;;;;;;;19.84;57.97;102549.41;5051034;28;20037;-82
2023/10/05 10:09:47;;;;;;;0.10;0.10;;;;;;;20.01;57.29;102540.78;5052576;28;20029;-82
2023/10/05 10:12:33;;;;;;;0.10;0.10;;;;;;;20.12;57.35;102543.09;5062753;28;20068;-80
2023/10/05 10:15:00;;;;;;;0.00;0.00;;;;;;;20.21;57.48;102550.00;5066482;28;20079;-82
2023/10/05 10:17:34;;;;;;;0.10;0.10;;;;;;;20.23;56.58;102545.44;5052923;28;20041;-82
2023/10/05 10:20:34;;;;;;;0.10;0.10;;;;;;;20.36;56.61;102552.19;5051203;28;20113;-82
2023/10/05 10:23:13;;;;;;;0.10;0.10;;;;;;;20.42;56.38;102543.00;5050770;28;20025;-81
2023/10/05 10:25:39;;;;;;;0.08;0.08;;;;;;;20.46;56.53;102541.06;5050243;28;20075;-82
2023/10/05 10:28:15;;;;;;;0.05;0.05;;;;;;;20.63;56.10;102538.66;5051352;28;20029;-82
2023/10/05 10:30:47;;;;;;;0.00;0.00;;;;;;;20.53;55.83;102545.31;5051542;28;20013;-82
2023/10/05 10:33:30;;;;;;;0.30;0.30;;;;;;;20.54;55.08;102539.00;5043815;28;20062;-82
2023/10/05 10:35:58;;;;;;;0.10;0.10;;;;;;;20.48;55.76;102540.09;5038120;28;20123;-82
2023/10/05 10:38:24;;;;;;;0.10;0.10;;;;;;;20.33;55.91;102546.88;5035734;28;20021;-80
2023/10/05 10:41:11;;;;;;;0.30;0.30;;;;;;;20.43;56.49;102543.88;5036067;28;20025;-82
2023/10/05 10:43:37;;;;;;;0.00;0.00;;;;;;;20.45;56.47;102544.69;5036604;28;20025;-82
2023/10/05 10:46:13;;;;;;;0.10;0.10;;;;;;;20.46;56.02;102547.38;5032698;28;20444;-78
2023/10/05 10:48:57;;;;;;;0.28;0.28;;;;;;;20.50;55.63;102545.44;5037757;28;20033;-82
2023/10/05 10:51:25;;;;;;;0.10;0.10;;;;;;;20.45;55.28;102539.31;5041747;28;20163;-79
2023/10/05 10:53:55;;;;;;;0.30;0.30;;;;;;;20.56;55.57;102545.22;5039962;28;20021;-81
2023/10/05 10:56:28;;;;;;;0.10;0.10;;;;;;;20.48;54.92;102547.28;5035438;28;20064;-81
2023/10/05 10:58:57;;;;;;;;;;;;;;;20.65;55.06;102550.28;5029264;28;20124;-81
2023/10/05 11:01:40;;;;;;;4.57;1.10;;;;;;;20.58;55.06;102553.25;5031996;28;20368;-81
2023/10/05 11:04:23;;;;;;;0.10;0.10;;;;;;;20.57;55.20;102548.78;5027386;28;20025;-81
2023/10/05 11:06:50;;;;;;;0.10;0.10;;;;;;;20.59;55.11;102557.72;5034243;28;20030;-81
2023/10/05 11:09:18;;;;;;;0.10;0.10;;;;;;;20.69;54.89;102551.91;5034002;28;20025;-81
2023/10/05 11:11:45;;;;;;;0.10;0.10;;;;;;;20.68;54.73;102550.16;5035252;28;20057;-81
2023/10/05 11:14:21;;;;;;;0.20;0.20;;;;;;;20.68;54.37;102547.47;5036812;28;20484;-80
2023/10/05 11:16:59;;;;;;;0.73;0.73;;;;;;;20.64;55.19;102545.81;5035553;28;20030;-81
2023/10/05 11:19:36;;;;;;;0.10;0.10;;;;;;;20.81;54.87;102544.34;5034521;28;20037;-81
2023/10/05 11:22:05;;;;;;;0.20;0.20;;;;;;;20.70;54.86;102547.44;5034681;28;20072;-80
2023/10/05 11:24:32;;;;;;;0.10;0.10;;;;;;;20.57;54.53;102536.19;5034835;28;20056;-80
2023/10/05 11:27:05;;;;;;;0.20;0.20;;;;;;;20.59;54.76;102550.50;5032895;28;20084;-81
2023/10/05 11:29:42;;;;;;;3.50;1.20;;;;;;;20.76;54.57;102543.66;5034379;28;20032;-83
2023/10/05 11:32:12;;;;;;;0.22;0.22;;;;;;;20.82;54.90;102546.13;5030615;28;20100;-81
2023/10/05 11:34:42;;;;;;;0.55;0.55;;;;;;;20.84;54.63;102541.56;5026645;28;20036;-82
2023/10/05 11:37:16;;;;;;;0.20;0.20;;;;;;;20.83;54.26;102540.69;5033649;28;20124;-83
2023/10/05 11:39:49;;;;;;;0.28;0.28;;;;;;;20.80;54.41;102542.63;5030769;28;20037;-82
2023/10/05 11:42:17;;;;;;;0.90;0.85;;;;;;;20.83;54.31;102543.38;5031634;28;20092;-82
2023/10/05 11:44:44;;;;;;;0.10;0.10;;;;;;;20.80;54.14;102545.31;5029244;28;20032;-82
2023/10/05 11:47:35;;;;;;;1.45;1.25;;;;;;;20.91;54.42;102550.28;5034318;28;20032;-82
2023/10/05 11:50:06;;;;;;;0.73;0.73;;;;;;;20.84;54.15;102555.91;5022569;28;20083;-82
2023/10/05 11:52:33;;;;;;;0.27;0.27;;;;;;;20.78;53.74;102549.88;5037539;28;20025;-82
2023/10/05 11:54:59;;;;;;;1.23;1.13;;;;;;;20.52;53.08;102551.63;5035591;28;20037;-81
2023/10/05 11:57:26;;;;;;;0.10;0.10;;;;;;;20.52;52.31;102554.31;5033704;28;20061;-81
2023/10/05 11:59:59;;;;;;;0.08;0.08;;;;;;;20.72;52.83;102555.47;5034075;28;20041;-82
2023/10/05 12:02:26;;;;;;;0.10;0.10;;;;;;;20.64;53.23;102548.50;5036916;28;20029;-81
2023/10/05 12:04:52;;;;;;;0.20;0.20;;;;;;;20.66;52.43;102549.34;5039155;28;20039;-83
2023/10/05 12:07:18;;;;;;;0.30;0.30;;;;;;;20.82;53.25;102548.81;5032181;28;20041;-82